createdAt,value
2018-05-25T00:00:24.947Z,0.00
2018-05-25T00:01:24.898Z,0.00
2018-05-25T00:02:24.884Z,0.00
2018-05-25T00:03:24.824Z,0.00
2018-05-25T00:04:24.788Z,0.00
2018-05-25T00:05:24.777Z,0.00
2018-05-25T00:06:24.759Z,0.00
2018-05-25T00:07:24.709Z,0.00
2018-05-25T00:08:24.655Z,0.00
2018-05-25T00:09:24.633Z,0.00
2018-05-25T00:10:24.581Z,0.00
2018-05-25T00:11:24.647Z,0.00
2018-05-25T00:12:24.511Z,0.00
2018-05-25T00:13:24.508Z,0.00
2018-05-25T00:14:24.443Z,0.00
2018-05-25T00:15:24.401Z,0.00
2018-05-25T00:16:27.227Z,0.00
2018-05-25T00:17:24.383Z,0.00
2018-05-25T00:18:24.324Z,0.00
2018-05-25T00:19:24.281Z,0.00
2018-05-25T00:20:24.249Z,0.00
2018-05-25T00:21:24.208Z,0.00
2018-05-25T00:22:24.163Z,0.00
2018-05-25T00:23:24.161Z,0.00
2018-05-25T00:24:24.106Z,0.00
2018-05-25T00:25:24.099Z,0.00
2018-05-25T00:26:24.038Z,0.00
2018-05-25T00:27:24.020Z,0.00
2018-05-25T00:28:24.023Z,0.00
2018-05-25T00:29:23.940Z,0.00
2018-05-25T00:30:23.891Z,0.00
2018-05-25T00:31:23.885Z,0.00
2018-05-25T00:32:23.847Z,0.00
2018-05-25T00:33:23.796Z,0.00
2018-05-25T00:34:23.763Z,0.00
2018-05-25T00:35:23.718Z,0.00
2018-05-25T00:36:23.700Z,0.00
2018-05-25T00:37:23.658Z,0.00
2018-05-25T00:38:23.614Z,0.00
2018-05-25T00:39:23.599Z,0.00
2018-05-25T00:40:23.544Z,0.00
2018-05-25T00:41:23.517Z,0.00
2018-05-25T00:42:23.492Z,0.00
2018-05-25T00:43:23.455Z,0.00
2018-05-25T00:44:23.429Z,0.00
2018-05-25T00:45:23.385Z,0.00
2018-05-25T00:46:23.375Z,0.00
2018-05-25T00:47:23.303Z,0.00
2018-05-25T00:48:23.275Z,0.00
2018-05-25T00:49:23.264Z,0.00
2018-05-25T00:50:23.268Z,0.00
2018-05-25T00:51:23.171Z,0.00
2018-05-25T00:52:23.143Z,0.00
2018-05-25T00:53:25.745Z,0.00
2018-05-25T00:54:23.105Z,0.00
2018-05-25T00:55:23.068Z,0.00
2018-05-25T00:56:23.016Z,0.00
2018-05-25T00:57:22.992Z,0.00
2018-05-25T00:58:22.935Z,0.00
2018-05-25T00:59:22.921Z,0.00
2018-05-25T01:00:22.926Z,0.00
2018-05-25T01:01:22.842Z,0.00
2018-05-25T01:02:22.799Z,0.00
2018-05-25T01:03:22.778Z,0.00
2018-05-25T01:04:22.720Z,0.00
2018-05-25T01:05:22.705Z,0.00
2018-05-25T01:06:22.660Z,0.00
2018-05-25T01:07:22.625Z,0.00
2018-05-25T01:08:22.592Z,0.00
2018-05-25T01:09:22.565Z,0.00
2018-05-25T01:10:22.541Z,0.00
2018-05-25T01:11:22.519Z,0.00
2018-05-25T01:12:22.454Z,0.00
2018-05-25T01:13:22.474Z,0.00
2018-05-25T01:14:22.413Z,0.00
2018-05-25T01:15:22.380Z,0.00
2018-05-25T01:16:22.408Z,0.00
2018-05-25T01:17:22.317Z,0.00
2018-05-25T01:18:22.279Z,0.00
2018-05-25T01:19:22.275Z,0.00
2018-05-25T01:20:22.208Z,0.00
2018-05-25T01:21:22.156Z,0.00
2018-05-25T01:22:22.122Z,0.00
2018-05-25T01:23:22.097Z,0.00
2018-05-25T01:24:22.037Z,0.00
2018-05-25T01:25:21.997Z,0.00
2018-05-25T01:26:21.973Z,0.00
2018-05-25T01:27:21.933Z,0.00
2018-05-25T01:28:21.909Z,0.00
2018-05-25T01:29:21.896Z,0.00
2018-05-25T01:30:21.835Z,0.00
2018-05-25T01:31:21.814Z,0.00
2018-05-25T01:32:21.783Z,0.00
2018-05-25T01:33:22.684Z,0.00
2018-05-25T01:34:21.724Z,0.00
2018-05-25T01:35:21.667Z,0.00
2018-05-25T01:36:21.635Z,0.00
2018-05-25T01:37:21.607Z,0.00
2018-05-25T01:38:21.570Z,0.00
2018-05-25T01:39:21.534Z,0.00
2018-05-25T01:40:21.512Z,0.00
2018-05-25T01:41:21.475Z,0.00
2018-05-25T01:42:21.443Z,0.00
2018-05-25T01:43:21.420Z,0.00
2018-05-25T01:44:21.362Z,0.00
2018-05-25T01:45:21.315Z,0.00
2018-05-25T01:46:21.280Z,0.00
2018-05-25T01:47:22.179Z,0.00
2018-05-25T01:48:21.224Z,0.00
2018-05-25T01:49:21.198Z,0.00
2018-05-25T01:50:21.176Z,0.00
2018-05-25T01:51:21.129Z,0.00
2018-05-25T01:52:21.075Z,0.00
2018-05-25T01:53:21.043Z,0.00
2018-05-25T01:54:21.034Z,0.00
2018-05-25T01:55:21.003Z,0.00
2018-05-25T01:56:20.989Z,0.00
2018-05-25T01:57:20.938Z,0.00
2018-05-25T01:58:20.910Z,0.00
2018-05-25T01:59:20.828Z,0.00
2018-05-25T02:00:20.806Z,0.00
2018-05-25T02:01:20.785Z,0.00
2018-05-25T02:02:20.757Z,0.00
2018-05-25T02:03:20.703Z,0.00
2018-05-25T02:04:20.673Z,0.00
2018-05-25T02:05:20.663Z,0.00
2018-05-25T02:06:20.630Z,0.00
2018-05-25T02:07:20.611Z,0.00
2018-05-25T02:08:20.609Z,0.00
2018-05-25T02:09:20.533Z,0.00
2018-05-25T02:10:20.509Z,0.00
2018-05-25T02:11:20.465Z,0.00
2018-05-25T02:12:20.396Z,0.00
2018-05-25T02:13:20.405Z,0.00
2018-05-25T02:14:20.326Z,0.00
2018-05-25T02:15:20.384Z,0.00
2018-05-25T02:16:20.256Z,0.00
2018-05-25T02:17:20.220Z,0.00
2018-05-25T02:18:20.195Z,0.00
2018-05-25T02:19:20.175Z,0.00
2018-05-25T02:20:20.135Z,0.00
2018-05-25T02:21:20.095Z,0.00
2018-05-25T02:22:20.060Z,0.00
2018-05-25T02:23:20.051Z,0.00
2018-05-25T02:24:19.972Z,0.00
2018-05-25T02:25:19.990Z,0.00
2018-05-25T02:26:19.946Z,0.00
2018-05-25T02:27:19.951Z,0.00
2018-05-25T02:28:19.874Z,0.00
2018-05-25T02:29:19.824Z,0.00
2018-05-25T02:30:19.791Z,0.00
2018-05-25T02:31:19.782Z,0.00
2018-05-25T02:32:19.726Z,0.00
2018-05-25T02:33:19.685Z,0.00
2018-05-25T02:34:19.652Z,0.00
2018-05-25T02:35:19.625Z,0.00
2018-05-25T02:36:19.578Z,0.00
2018-05-25T02:37:19.548Z,0.00
2018-05-25T02:38:19.539Z,0.00
2018-05-25T02:39:19.475Z,0.00
2018-05-25T02:40:19.457Z,0.00
2018-05-25T02:41:19.500Z,0.00
2018-05-25T02:42:19.437Z,0.00
2018-05-25T02:43:19.341Z,0.00
2018-05-25T02:44:19.316Z,0.00
2018-05-25T02:45:19.263Z,0.00
2018-05-25T02:46:19.272Z,0.00
2018-05-25T02:47:19.202Z,0.00
2018-05-25T02:48:19.191Z,0.00
2018-05-25T02:49:19.135Z,0.00
2018-05-25T02:50:19.083Z,0.00
2018-05-25T02:51:19.157Z,0.00
2018-05-25T02:52:19.048Z,0.00
2018-05-25T02:53:19.002Z,0.00
2018-05-25T02:54:18.967Z,0.00
2018-05-25T02:55:18.947Z,0.00
2018-05-25T02:56:18.901Z,0.00
2018-05-25T02:57:18.899Z,0.00
2018-05-25T02:58:18.839Z,0.00
2018-05-25T02:59:18.860Z,0.00
2018-05-25T03:00:18.772Z,0.00
2018-05-25T03:01:18.745Z,0.00
2018-05-25T03:02:18.728Z,0.00
2018-05-25T03:03:18.697Z,0.00
2018-05-25T03:04:18.618Z,0.00
2018-05-25T03:05:18.598Z,0.00
2018-05-25T03:06:18.591Z,0.00
2018-05-25T03:07:18.550Z,0.00
2018-05-25T03:08:18.502Z,5.63
2018-05-25T03:09:18.463Z,5.63
2018-05-25T03:10:18.513Z,5.63
2018-05-25T03:11:18.420Z,5.63
2018-05-25T03:12:18.386Z,5.63
2018-05-25T03:13:18.320Z,11.25
2018-05-25T03:14:18.273Z,11.25
2018-05-25T03:15:18.292Z,11.25
2018-05-25T03:16:18.218Z,11.25
2018-05-25T03:17:18.176Z,16.88
2018-05-25T03:18:18.148Z,16.88
2018-05-25T03:19:18.100Z,16.88
2018-05-25T03:20:18.102Z,22.50
2018-05-25T03:21:18.048Z,22.50
2018-05-25T03:22:18.061Z,28.13
2018-05-25T03:23:17.996Z,33.75
2018-05-25T03:24:17.975Z,33.75
2018-05-25T03:25:17.941Z,39.38
2018-05-25T03:26:17.881Z,45.00
2018-05-25T03:27:17.862Z,45.00
2018-05-25T03:28:17.850Z,50.63
2018-05-25T03:29:17.767Z,56.25
2018-05-25T03:30:17.744Z,56.25
2018-05-25T03:31:17.760Z,61.88
2018-05-25T03:32:17.741Z,67.50
2018-05-25T03:33:17.698Z,73.13
2018-05-25T03:34:17.631Z,78.75
2018-05-25T03:35:17.705Z,78.75
2018-05-25T03:36:17.541Z,84.38
2018-05-25T03:37:17.659Z,84.38
2018-05-25T03:38:17.513Z,90.00
2018-05-25T03:39:17.434Z,95.63
2018-05-25T03:40:17.414Z,101.25
2018-05-25T03:41:17.367Z,101.25
2018-05-25T03:42:17.324Z,106.88
2018-05-25T03:43:17.289Z,112.50
2018-05-25T03:44:17.277Z,112.50
2018-05-25T03:45:17.212Z,112.50
2018-05-25T03:46:17.206Z,112.50
2018-05-25T03:47:17.213Z,112.50
2018-05-25T03:48:17.172Z,118.13
2018-05-25T03:49:17.095Z,123.75
2018-05-25T03:50:17.093Z,129.38
2018-05-25T03:51:17.020Z,135.00
2018-05-25T03:52:16.991Z,140.63
2018-05-25T03:53:16.971Z,140.63
2018-05-25T03:54:16.940Z,140.63
2018-05-25T03:55:16.870Z,140.63
2018-05-25T03:56:16.900Z,146.25
2018-05-25T03:57:16.809Z,146.25
2018-05-25T03:58:16.766Z,146.25
2018-05-25T03:59:16.725Z,151.88
2018-05-25T04:00:16.803Z,151.88
2018-05-25T04:01:16.689Z,151.88
2018-05-25T04:02:16.646Z,151.88
2018-05-25T04:03:16.638Z,163.13
2018-05-25T04:04:16.591Z,168.75
2018-05-25T04:05:16.552Z,174.38
2018-05-25T04:06:16.504Z,174.38
2018-05-25T04:07:16.462Z,180.00
2018-05-25T04:08:16.471Z,180.00
2018-05-25T04:09:16.414Z,180.00
2018-05-25T04:10:16.368Z,180.00
2018-05-25T04:11:16.324Z,185.63
2018-05-25T04:12:16.337Z,185.63
2018-05-25T04:13:16.261Z,191.25
2018-05-25T04:14:16.367Z,196.88
2018-05-25T04:15:16.199Z,208.13
2018-05-25T04:16:16.166Z,213.75
2018-05-25T04:17:16.109Z,225.00
2018-05-25T04:18:16.077Z,225.00
2018-05-25T04:19:16.109Z,219.38
2018-05-25T04:20:16.035Z,219.38
2018-05-25T04:21:15.990Z,219.38
2018-05-25T04:22:15.961Z,219.38
2018-05-25T04:23:15.927Z,213.75
2018-05-25T04:24:15.885Z,213.75
2018-05-25T04:25:15.917Z,219.38
2018-05-25T04:26:15.954Z,219.38
2018-05-25T04:27:15.942Z,225.00
2018-05-25T04:28:15.796Z,225.00
2018-05-25T04:29:15.722Z,230.63
2018-05-25T04:30:15.688Z,236.25
2018-05-25T04:31:15.771Z,241.88
2018-05-25T04:32:18.601Z,247.50
2018-05-25T04:33:15.576Z,247.50
2018-05-25T04:34:15.538Z,253.13
2018-05-25T04:35:15.489Z,253.13
2018-05-25T04:36:15.476Z,264.38
2018-05-25T04:37:15.432Z,275.63
2018-05-25T04:38:15.392Z,275.63
2018-05-25T04:39:15.382Z,286.88
2018-05-25T04:40:15.351Z,298.13
2018-05-25T04:41:15.289Z,303.75
2018-05-25T04:42:15.262Z,315.00
2018-05-25T04:43:15.253Z,320.63
2018-05-25T04:44:15.238Z,326.25
2018-05-25T04:45:15.176Z,331.88
2018-05-25T04:46:15.135Z,343.13
2018-05-25T04:47:15.116Z,354.38
2018-05-25T04:48:15.074Z,365.63
2018-05-25T04:49:15.053Z,371.25
2018-05-25T04:50:15.057Z,371.25
2018-05-25T04:51:14.983Z,376.88
2018-05-25T04:52:14.918Z,388.13
2018-05-25T04:53:14.901Z,393.75
2018-05-25T04:54:14.849Z,410.63
2018-05-25T04:55:14.870Z,416.25
2018-05-25T04:56:14.880Z,421.88
2018-05-25T04:57:14.767Z,427.50
2018-05-25T04:58:14.725Z,433.13
2018-05-25T04:59:14.737Z,450.00
2018-05-25T05:00:14.699Z,461.25
2018-05-25T05:01:14.624Z,478.13
2018-05-25T05:02:14.576Z,489.38
2018-05-25T05:03:14.536Z,500.63
2018-05-25T05:04:14.510Z,511.88
2018-05-25T05:05:14.481Z,517.50
2018-05-25T05:06:14.487Z,528.75
2018-05-25T05:07:14.425Z,540.00
2018-05-25T05:08:14.388Z,562.50
2018-05-25T05:09:14.336Z,579.38
2018-05-25T05:10:14.375Z,596.25
2018-05-25T05:11:14.265Z,613.13
2018-05-25T05:12:14.251Z,624.38
2018-05-25T05:13:14.323Z,641.25
2018-05-25T05:14:14.181Z,703.13
2018-05-25T05:15:14.145Z,781.88
2018-05-25T05:16:14.178Z,748.13
2018-05-25T05:17:14.157Z,900.00
2018-05-25T05:18:14.062Z,871.88
2018-05-25T05:19:14.037Z,731.25
2018-05-25T05:20:13.982Z,748.13
2018-05-25T05:21:13.966Z,787.50
2018-05-25T05:22:13.917Z,793.13
2018-05-25T05:23:13.896Z,770.63
2018-05-25T05:24:13.880Z,776.25
2018-05-25T05:25:13.809Z,793.13
2018-05-25T05:26:13.825Z,787.50
2018-05-25T05:27:13.743Z,776.25
2018-05-25T05:28:13.731Z,776.25
2018-05-25T05:29:13.690Z,793.13
2018-05-25T05:30:13.644Z,821.25
2018-05-25T05:31:13.628Z,826.88
2018-05-25T05:32:13.596Z,849.38
2018-05-25T05:33:13.559Z,838.13
2018-05-25T05:34:13.538Z,838.13
2018-05-25T05:35:13.495Z,832.50
2018-05-25T05:36:13.487Z,826.88
2018-05-25T05:37:13.425Z,826.88
2018-05-25T05:38:13.402Z,821.25
2018-05-25T05:39:13.376Z,815.63
2018-05-25T05:40:13.349Z,810.00
2018-05-25T05:41:13.314Z,821.25
2018-05-25T05:42:13.265Z,826.88
2018-05-25T05:43:13.231Z,804.38
2018-05-25T05:44:13.247Z,810.00
2018-05-25T05:45:13.169Z,815.63
2018-05-25T05:46:13.144Z,826.88
2018-05-25T05:47:13.128Z,832.50
2018-05-25T05:48:13.083Z,838.13
2018-05-25T05:49:13.069Z,849.38
2018-05-25T05:50:13.010Z,860.63
2018-05-25T05:51:12.981Z,883.13
2018-05-25T05:52:12.978Z,894.38
2018-05-25T05:53:12.937Z,916.88
2018-05-25T05:54:12.878Z,956.25
2018-05-25T05:55:13.762Z,973.13
2018-05-25T05:56:12.828Z,1012.50
2018-05-25T05:57:12.801Z,995.63
2018-05-25T05:58:12.755Z,1023.75
2018-05-25T05:59:12.743Z,1125.00
2018-05-25T06:00:12.693Z,1198.13
2018-05-25T06:01:12.666Z,1417.50
2018-05-25T06:02:12.631Z,1361.25
2018-05-25T06:03:12.627Z,1743.75
2018-05-25T06:04:12.583Z,1940.63
2018-05-25T06:05:12.538Z,1721.25
2018-05-25T06:06:12.539Z,1535.63
2018-05-25T06:07:12.485Z,1490.63
2018-05-25T06:08:12.460Z,1496.25
2018-05-25T06:09:12.437Z,1490.63
2018-05-25T06:10:12.410Z,1456.88
2018-05-25T06:11:12.415Z,1456.88
2018-05-25T06:12:12.348Z,1462.50
2018-05-25T06:13:12.311Z,1479.38
2018-05-25T06:14:12.293Z,1366.88
2018-05-25T06:15:12.255Z,1451.25
2018-05-25T06:16:12.214Z,1338.75
2018-05-25T06:17:12.200Z,1243.13
2018-05-25T06:18:12.145Z,1254.38
2018-05-25T06:19:12.125Z,1389.38
2018-05-25T06:20:12.106Z,1743.75
2018-05-25T06:21:12.059Z,1198.13
2018-05-25T06:22:12.037Z,1164.38
2018-05-25T06:23:12.000Z,1125.00
2018-05-25T06:24:11.973Z,1231.88
2018-05-25T06:25:12.116Z,1417.50
2018-05-25T06:26:11.925Z,1558.13
2018-05-25T06:27:11.884Z,1513.13
2018-05-25T06:28:11.858Z,1417.50
2018-05-25T06:29:11.848Z,1456.88
2018-05-25T06:30:11.814Z,1518.75
2018-05-25T06:31:11.780Z,1518.75
2018-05-25T06:32:11.748Z,1541.25
2018-05-25T06:33:11.713Z,1563.75
2018-05-25T06:34:11.708Z,1603.13
2018-05-25T06:35:11.685Z,1575.00
2018-05-25T06:36:11.656Z,1569.38
2018-05-25T06:37:11.629Z,1575.00
2018-05-25T06:38:11.576Z,1597.50
2018-05-25T06:39:11.588Z,1620.00
2018-05-25T06:40:11.521Z,1620.00
2018-05-25T06:41:11.494Z,1636.88
2018-05-25T06:42:11.465Z,1670.63
2018-05-25T06:43:11.432Z,1766.25
2018-05-25T06:44:11.401Z,1918.13
2018-05-25T06:45:11.375Z,1800.00
2018-05-25T06:46:11.356Z,1800.00
2018-05-25T06:47:11.317Z,1816.88
2018-05-25T06:48:11.313Z,1867.50
2018-05-25T06:49:11.260Z,1895.63
2018-05-25T06:50:11.254Z,1895.63
2018-05-25T06:51:11.215Z,1816.88
2018-05-25T06:52:11.192Z,1693.13
2018-05-25T06:53:11.156Z,1681.88
2018-05-25T06:54:11.142Z,1726.88
2018-05-25T06:55:11.119Z,1929.38
2018-05-25T06:56:11.077Z,1777.50
2018-05-25T06:57:11.063Z,1665.00
2018-05-25T06:58:11.075Z,1591.88
2018-05-25T06:59:11.004Z,1552.50
2018-05-25T07:00:10.974Z,1507.50
2018-05-25T07:01:10.936Z,1473.75
2018-05-25T07:02:10.912Z,1456.88
2018-05-25T07:03:10.898Z,1445.63
2018-05-25T07:04:10.861Z,1462.50
2018-05-25T07:05:10.841Z,1490.63
2018-05-25T07:06:10.812Z,1535.63
2018-05-25T07:07:10.788Z,1608.75
2018-05-25T07:08:10.771Z,1743.75
2018-05-25T07:09:10.721Z,2390.63
2018-05-25T07:10:10.718Z,1974.38
2018-05-25T07:11:10.763Z,2058.75
2018-05-25T07:12:10.665Z,2733.75
2018-05-25T07:13:10.644Z,2295.00
2018-05-25T07:14:10.616Z,2345.63
2018-05-25T07:15:10.566Z,2458.13
2018-05-25T07:16:10.550Z,2373.75
2018-05-25T07:17:10.548Z,2266.88
2018-05-25T07:18:10.557Z,2362.50
2018-05-25T07:19:10.475Z,2199.38
2018-05-25T07:20:10.559Z,2193.75
2018-05-25T07:21:10.427Z,2103.75
2018-05-25T07:22:10.397Z,2075.63
2018-05-25T07:23:10.355Z,2058.75
2018-05-25T07:24:10.345Z,2047.50
2018-05-25T07:25:10.323Z,1991.25
2018-05-25T07:26:10.286Z,1940.63
2018-05-25T07:27:10.262Z,1890.00
2018-05-25T07:28:10.238Z,1856.25
2018-05-25T07:29:10.215Z,1845.00
2018-05-25T07:30:10.227Z,1839.38
2018-05-25T07:31:10.814Z,1833.75
2018-05-25T07:32:10.135Z,1833.75
2018-05-25T07:33:10.098Z,1822.50
2018-05-25T07:34:10.071Z,1794.38
2018-05-25T07:35:10.053Z,1766.25
2018-05-25T07:36:10.051Z,1749.38
2018-05-25T07:37:10.000Z,1743.75
2018-05-25T07:38:09.980Z,1743.75
2018-05-25T07:39:09.943Z,1755.00
2018-05-25T07:40:09.962Z,1788.75
2018-05-25T07:41:09.891Z,1839.38
2018-05-25T07:42:09.893Z,1974.38
2018-05-25T07:43:09.852Z,2396.25
2018-05-25T07:44:09.832Z,2840.63
2018-05-25T07:45:09.802Z,2317.50
2018-05-25T07:46:09.778Z,3088.13
2018-05-25T07:47:09.746Z,2334.38
2018-05-25T07:48:09.695Z,2244.38
2018-05-25T07:49:09.694Z,2176.88
2018-05-25T07:50:09.665Z,2126.25
2018-05-25T07:51:09.643Z,2058.75
2018-05-25T07:52:09.613Z,2019.38
2018-05-25T07:53:09.560Z,1963.13
2018-05-25T07:54:09.584Z,1918.13
2018-05-25T07:55:09.524Z,1878.75
2018-05-25T07:56:09.491Z,1833.75
2018-05-25T07:57:09.489Z,1788.75
2018-05-25T07:58:09.467Z,1743.75
2018-05-25T07:59:09.433Z,1698.75
2018-05-25T08:00:09.418Z,1648.13
2018-05-25T08:01:09.367Z,1597.50
2018-05-25T08:02:09.370Z,1563.75
2018-05-25T08:03:09.328Z,1530.00
2018-05-25T08:04:09.293Z,1490.63
2018-05-25T08:05:09.267Z,1456.88
2018-05-25T08:06:09.257Z,1423.13
2018-05-25T08:07:09.209Z,1378.13
2018-05-25T08:08:09.183Z,1338.75
2018-05-25T08:09:09.155Z,1299.38
2018-05-25T08:10:09.136Z,1254.38
2018-05-25T08:11:09.127Z,1215.00
2018-05-25T08:12:09.075Z,1175.63
2018-05-25T08:13:09.039Z,1153.13
2018-05-25T08:14:09.022Z,1125.00
2018-05-25T08:15:08.993Z,1096.88
2018-05-25T08:16:08.993Z,1068.75
2018-05-25T08:17:08.946Z,1035.00
2018-05-25T08:18:08.921Z,1001.25
2018-05-25T08:19:08.900Z,967.50
2018-05-25T08:20:08.853Z,928.13
2018-05-25T08:21:08.818Z,900.00
2018-05-25T08:22:08.834Z,871.88
2018-05-25T08:23:08.796Z,849.38
2018-05-25T08:24:08.752Z,838.13
2018-05-25T08:25:08.716Z,826.88
2018-05-25T08:26:08.689Z,815.63
2018-05-25T08:27:08.666Z,815.63
2018-05-25T08:28:08.653Z,815.63
2018-05-25T08:29:08.640Z,821.25
2018-05-25T08:30:08.597Z,832.50
2018-05-25T08:31:08.590Z,843.75
2018-05-25T08:32:08.563Z,855.00
2018-05-25T08:33:08.507Z,883.13
2018-05-25T08:34:08.509Z,911.25
2018-05-25T08:35:08.444Z,945.00
2018-05-25T08:36:08.524Z,978.75
2018-05-25T08:37:08.443Z,1018.13
2018-05-25T08:38:08.386Z,1068.75
2018-05-25T08:39:08.419Z,1108.13
2018-05-25T08:40:08.317Z,1158.75
2018-05-25T08:41:10.834Z,1215.00
2018-05-25T08:42:08.251Z,1276.88
2018-05-25T08:43:08.220Z,1344.38
2018-05-25T08:44:08.225Z,1423.13
2018-05-25T08:45:08.205Z,1513.13
2018-05-25T08:46:08.148Z,1620.00
2018-05-25T08:47:08.120Z,1738.13
2018-05-25T08:48:08.113Z,1856.25
2018-05-25T08:49:08.042Z,1974.38
2018-05-25T08:50:08.046Z,2086.88
2018-05-25T08:51:08.002Z,2176.88
2018-05-25T08:52:08.053Z,2244.38
2018-05-25T08:53:07.949Z,2289.38
2018-05-25T08:54:07.946Z,2340.00
2018-05-25T08:55:07.883Z,2373.75
2018-05-25T08:56:07.900Z,2379.38
2018-05-25T08:57:07.850Z,2396.25
2018-05-25T08:58:07.790Z,2435.63
2018-05-25T08:59:08.356Z,2497.50
2018-05-25T09:00:07.774Z,2452.50
2018-05-25T09:01:07.712Z,2469.38
2018-05-25T09:02:07.703Z,2486.25
2018-05-25T09:03:07.682Z,2531.25
2018-05-25T09:04:07.643Z,2615.63
2018-05-25T09:05:07.603Z,3178.13
2018-05-25T09:06:07.610Z,4123.13
2018-05-25T09:07:07.552Z,2694.38
2018-05-25T09:08:07.545Z,2565.00
2018-05-25T09:09:07.543Z,3211.88
2018-05-25T09:10:07.492Z,2542.50
2018-05-25T09:11:07.463Z,2424.38
2018-05-25T09:12:07.458Z,2407.50
2018-05-25T09:13:07.387Z,2396.25
2018-05-25T09:14:07.394Z,2593.13
2018-05-25T09:15:07.355Z,5203.13
2018-05-25T09:16:07.333Z,4696.88
2018-05-25T09:17:07.325Z,4843.13
2018-05-25T09:18:07.258Z,5833.13
2018-05-25T09:19:07.231Z,6378.75
2018-05-25T09:20:07.215Z,6221.25
2018-05-25T09:21:07.245Z,4016.25
2018-05-25T09:22:07.178Z,3656.25
2018-05-25T09:23:07.139Z,3498.75
2018-05-25T09:24:07.149Z,3510.00
2018-05-25T09:25:07.089Z,3363.75
2018-05-25T09:26:07.053Z,3369.38
2018-05-25T09:27:07.049Z,3650.63
2018-05-25T09:28:07.006Z,3481.88
2018-05-25T09:29:06.967Z,3037.50
2018-05-25T09:30:06.947Z,2728.13
2018-05-25T09:31:06.941Z,2514.38
2018-05-25T09:32:06.945Z,2385.00
2018-05-25T09:33:06.901Z,2289.38
2018-05-25T09:34:06.886Z,2396.25
2018-05-25T09:35:06.833Z,2272.50
2018-05-25T09:36:06.816Z,2255.63
2018-05-25T09:37:06.811Z,2255.63
2018-05-25T09:38:06.773Z,2351.25
2018-05-25T09:39:06.749Z,2705.63
2018-05-25T09:40:06.715Z,2761.88
2018-05-25T09:41:06.696Z,2638.13
2018-05-25T09:42:06.739Z,2598.75
2018-05-25T09:43:06.664Z,2548.13
2018-05-25T09:44:06.649Z,2542.50
2018-05-25T09:45:06.639Z,2565.00
2018-05-25T09:46:06.579Z,2598.75
2018-05-25T09:47:06.540Z,2621.25
2018-05-25T09:48:06.559Z,2683.13
2018-05-25T09:49:06.524Z,2902.50
2018-05-25T09:50:06.504Z,3121.88
2018-05-25T09:51:06.461Z,3436.88
2018-05-25T09:52:06.483Z,4933.13
2018-05-25T09:53:06.443Z,5152.50
2018-05-25T09:54:06.383Z,4831.88
2018-05-25T09:55:06.391Z,4185.00
2018-05-25T09:56:06.364Z,3251.25
2018-05-25T09:57:06.328Z,3138.75
2018-05-25T09:58:06.289Z,3645.00
2018-05-25T09:59:06.288Z,3830.63
2018-05-25T10:00:06.307Z,3504.38
2018-05-25T10:01:06.248Z,3555.00
2018-05-25T10:02:06.207Z,3678.75
2018-05-25T10:03:06.194Z,3459.38
2018-05-25T10:04:06.210Z,3217.50
2018-05-25T10:05:06.140Z,3116.25
2018-05-25T10:06:06.114Z,3121.88
2018-05-25T10:07:06.097Z,3189.38
2018-05-25T10:08:06.049Z,3296.25
2018-05-25T10:09:06.068Z,3313.13
2018-05-25T10:10:06.041Z,3301.88
2018-05-25T10:11:05.986Z,3166.88
2018-05-25T10:12:05.948Z,3020.63
2018-05-25T10:13:05.949Z,2902.50
2018-05-25T10:14:05.910Z,2756.25
2018-05-25T10:15:05.898Z,2553.75
2018-05-25T10:16:05.873Z,2469.38
2018-05-25T10:17:05.855Z,2306.25
2018-05-25T10:18:05.859Z,2205.00
2018-05-25T10:19:05.805Z,2362.50
2018-05-25T10:20:05.786Z,2503.13
2018-05-25T10:21:05.751Z,3121.88
2018-05-25T10:22:05.775Z,3448.13
2018-05-25T10:23:06.382Z,3740.63
2018-05-25T10:24:05.711Z,3909.38
2018-05-25T10:25:05.656Z,4426.88
2018-05-25T10:26:05.688Z,4016.25
2018-05-25T10:27:05.619Z,3841.88
2018-05-25T10:28:05.647Z,3971.25
2018-05-25T10:29:05.605Z,3751.88
2018-05-25T10:30:05.554Z,3886.88
2018-05-25T10:31:05.635Z,4179.38
2018-05-25T10:32:05.530Z,3841.88
2018-05-25T10:33:05.512Z,4173.75
2018-05-25T10:34:05.544Z,3262.50
2018-05-25T10:35:05.508Z,2733.75
2018-05-25T10:36:05.405Z,2632.50
2018-05-25T10:37:05.433Z,3318.75
2018-05-25T10:38:05.356Z,3695.63
2018-05-25T10:39:05.357Z,4725.00
2018-05-25T10:40:05.315Z,2711.25
2018-05-25T10:41:05.305Z,2936.25
2018-05-25T10:42:05.267Z,4871.25
2018-05-25T10:43:05.242Z,5400.00
2018-05-25T10:44:05.224Z,4415.63
2018-05-25T10:45:05.214Z,4505.63
2018-05-25T10:46:05.184Z,5647.50
2018-05-25T10:47:05.165Z,4201.88
2018-05-25T10:48:05.160Z,3605.63
2018-05-25T10:49:05.140Z,2936.25
2018-05-25T10:50:05.104Z,2733.75
2018-05-25T10:51:05.061Z,2660.63
2018-05-25T10:52:05.033Z,2626.88
2018-05-25T10:53:05.028Z,2610.00
2018-05-25T10:54:05.016Z,2587.50
2018-05-25T10:55:04.990Z,2542.50
2018-05-25T10:56:04.975Z,2475.00
2018-05-25T10:57:04.935Z,2390.63
2018-05-25T10:58:04.910Z,2311.88
2018-05-25T10:59:04.868Z,2221.88
2018-05-25T11:00:04.888Z,2165.63
2018-05-25T11:01:04.869Z,2103.75
2018-05-25T11:02:04.833Z,2053.13
2018-05-25T11:03:04.793Z,1991.25
2018-05-25T11:04:04.770Z,1946.25
2018-05-25T11:05:04.761Z,1867.50
2018-05-25T11:06:04.765Z,1800.00
2018-05-25T11:07:04.705Z,1721.25
2018-05-25T11:08:04.686Z,1670.63
2018-05-25T11:09:04.698Z,1642.50
2018-05-25T11:10:04.731Z,1648.13
2018-05-25T11:11:04.704Z,1676.25
2018-05-25T11:12:04.600Z,1710.00
2018-05-25T11:13:04.569Z,1743.75
2018-05-25T11:14:04.545Z,1794.38
2018-05-25T11:15:04.516Z,1845.00
2018-05-25T11:16:04.476Z,1901.25
2018-05-25T11:17:04.482Z,1850.63
2018-05-25T11:18:04.435Z,1839.38
2018-05-25T11:19:04.422Z,1816.88
2018-05-25T11:20:04.392Z,1811.25
2018-05-25T11:21:04.391Z,1800.00
2018-05-25T11:22:04.362Z,1833.75
2018-05-25T11:23:04.325Z,1873.13
2018-05-25T11:24:04.331Z,1901.25
2018-05-25T11:25:04.279Z,1974.38
2018-05-25T11:26:04.242Z,2092.50
2018-05-25T11:27:04.220Z,2266.88
2018-05-25T11:28:04.182Z,2542.50
2018-05-25T11:29:04.166Z,2626.88
2018-05-25T11:30:04.135Z,2655.00
2018-05-25T11:31:04.126Z,2632.50
2018-05-25T11:32:04.107Z,2649.38
2018-05-25T11:33:04.063Z,2655.00
2018-05-25T11:34:04.032Z,2469.38
2018-05-25T11:35:04.044Z,2587.50
2018-05-25T11:36:03.982Z,2570.63
2018-05-25T11:37:03.956Z,2587.50
2018-05-25T11:38:03.949Z,2480.63
2018-05-25T11:39:03.910Z,2362.50
2018-05-25T11:40:03.897Z,2289.38
2018-05-25T11:41:03.857Z,2272.50
2018-05-25T11:42:03.839Z,2311.88
2018-05-25T11:43:03.807Z,2435.63
2018-05-25T11:44:03.800Z,2593.13
2018-05-25T11:45:03.763Z,2671.88
2018-05-25T11:46:03.753Z,2610.00
2018-05-25T11:47:03.720Z,2570.63
2018-05-25T11:48:03.694Z,2565.00
2018-05-25T11:49:03.688Z,2750.63
2018-05-25T11:50:03.633Z,3813.75
2018-05-25T11:51:03.601Z,3290.63
2018-05-25T11:52:03.600Z,3161.25
2018-05-25T11:53:03.582Z,2823.75
2018-05-25T11:54:03.629Z,2919.38
2018-05-25T11:55:03.525Z,3268.13
2018-05-25T11:56:03.542Z,2598.75
2018-05-25T11:57:03.464Z,2452.50
2018-05-25T11:58:03.440Z,2514.38
2018-05-25T11:59:03.469Z,2351.25
2018-05-25T12:00:03.409Z,2328.75
2018-05-25T12:01:03.400Z,2368.13
2018-05-25T12:02:03.374Z,2430.00
2018-05-25T12:03:03.324Z,3375.00
2018-05-25T12:04:03.298Z,2925.00
2018-05-25T12:05:03.287Z,3841.88
2018-05-25T12:06:03.243Z,3712.50
2018-05-25T12:07:03.238Z,4663.13
2018-05-25T12:08:03.228Z,3476.25
2018-05-25T12:09:03.174Z,3600.00
2018-05-25T12:10:03.164Z,3858.75
2018-05-25T12:11:03.134Z,3690.00
2018-05-25T12:12:03.111Z,4443.75
2018-05-25T12:13:03.099Z,6148.13
2018-05-25T12:14:03.099Z,4500.00
2018-05-25T12:15:03.033Z,5585.63
2018-05-25T12:16:03.007Z,5630.63
2018-05-25T12:17:03.148Z,5270.63
2018-05-25T12:18:03.070Z,5850.00
2018-05-25T12:19:02.940Z,6018.75
2018-05-25T12:20:02.920Z,5816.25
2018-05-25T12:21:02.904Z,5833.13
2018-05-25T12:22:02.951Z,5906.25
2018-05-25T12:23:02.876Z,5962.50
2018-05-25T12:24:02.870Z,6311.25
2018-05-25T12:25:02.809Z,6390.00
2018-05-25T12:26:02.793Z,6075.00
2018-05-25T12:27:02.793Z,5585.63
2018-05-25T12:28:02.744Z,4455.00
2018-05-25T12:29:02.784Z,5383.13